Latest Weather Observations for Coldstream

IDV60801

Issued at 10:05 pm EDT Saturday 22 November 2014 (issued every 30 minutes, with the page automatically refreshed every 10 minutes)

About weather observations | Map of weather stations | Latest weather observations for VIC | Other Formats
Station Details ID: 086383 Name: COLDSTREAM Lat: -37.72 Lon: 145.41 Height: 83.0 m
Data from the previous 72 hours. | See also: Recent months at Coldstream
Date/Time
EDT
Temp
°C
App
Temp
°C
Dew
Point
Rel
Hum
%
Delta-T
°C
Wind Press
QNH
hPa
Press
MSL
hPa
Rain
since 9 am
mm
Dir
 
Spd
km/h
Gust
km/h
Spd
kts
Gust
kts
22/10:00pm 22.8 21.1 11.2 48 6.5 N 11 17 6 9 1007.9 1007.8 0.0
22/09:30pm 23.0 22.4 11.7 49 6.4 N 6 9 3 5 1007.6 1007.5 0.0
22/09:00pm 25.8 24.0 9.6 36 9.0 NW 9 17 5 9 1007.3 1007.2 0.0
22/08:30pm 23.4 23.5 11.5 47 6.7 NNE 2 6 1 3 1006.7 1006.6 0.0
22/08:00pm 25.2 23.1 9.9 38 8.5 N 11 19 6 10 1006.4 1006.3 0.0
22/07:30pm 25.6 23.9 9.8 37 8.7 N 9 15 5 8 1006.1 1006.0 0.0
22/07:00pm 27.0 26.2 11.1 37 9.1 N 6 11 3 6 1006.3 1006.2 0.0
22/06:30pm 27.7 25.0 10.4 34 9.8 N 15 28 8 15 1006.2 1006.1 0.0
22/06:00pm 28.8 25.5 10.9 33 10.3 N 19 33 10 18 1006.3 1006.2 0.0
22/05:30pm 28.4 24.7 9.6 31 10.5 N 19 28 10 15 1006.1 1006.0 0.0
22/05:00pm 28.4 23.8 8.1 28 11.1 N 22 35 12 19 1006.5 1006.4 0.0
22/04:30pm 28.2 23.4 9.0 30 10.6 N 24 39 13 21 1007.0 1006.9 0.0
22/04:00pm 28.2 22.9 9.9 32 10.3 N 28 39 15 21 1007.3 1007.2 0.0
22/03:30pm 27.7 22.7 10.9 35 9.6 N 28 46 15 25 1008.0 1007.9 0.0
22/03:00pm 27.2 24.0 11.2 36 9.2 N 19 30 10 16 1008.1 1008.0 0.0
22/02:30pm 26.1 24.0 13.6 46 7.4 NNE 17 24 9 13 1008.4 1008.3 0.0
22/02:00pm 25.2 22.3 9.5 37 8.6 NNE 15 28 8 15 1008.5 1008.4 0.0
22/01:30pm 24.7 21.5 9.8 39 8.2 NNE 17 24 9 13 1009.5 1009.4 0.0
22/01:00pm 23.4 22.3 11.8 48 6.6 NE 9 19 5 10 1009.6 1009.5 0.0
22/12:56pm 22.9 21.2 11.3 48 6.5 NE 11 19 6 10 1009.8 1009.7 0.0
22/12:30pm 22.9 21.0 11.9 50 6.2 N 13 20 7 11 1011.8 1011.7 0.0
22/12:00pm 22.5 20.2 11.6 50 6.1 N 15 24 8 13 1010.7 1010.6 0.0
22/11:30am 21.8 21.3 13.7 60 4.7 NE 9 15 5 8 1010.7 1010.6 0.0
22/11:00am 20.0 21.2 13.9 68 3.5 CALM 0 0 0 0 1011.2 1011.1 0.0
22/10:30am 18.9 18.3 13.5 71 3.1 SE 9 13 5 7 1011.1 1011.0 0.0
22/10:00am 18.6 18.3 13.2 71 3.1 SE 7 11 4 6 1011.4 1011.3 0.0
22/09:30am 18.1 17.6 13.8 76 2.5 SE 9 13 5 7 1011.6 1011.5 0.0
22/09:00am 17.3 16.7 12.4 73 2.7 ESE 7 11 4 6 1011.7 1011.6 0.0
22/08:30am 16.1 15.8 13.4 84 1.5 SE 7 11 4 6 1011.8 1011.7 0.0
22/08:00am 14.1 13.1 12.3 89 1.0 SE 9 13 5 7 1011.4 1011.3 0.0
22/07:30am 12.6 12.2 12.4 99 0.1 SSE 6 7 3 4 1011.1 1011.0 0.0
22/07:00am 10.7 10.5 10.5 99 0.1 SSE 2 6 1 3 1010.8 1010.7 0.0
22/06:30am 8.0 7.5 7.9 99 0.0 CALM 0 0 0 0 1010.7 1010.6 0.0
22/06:00am 7.3 6.7 7.2 99 0.0 CALM 0 0 0 0 1010.7 1010.6 0.0
22/05:30am 7.2 6.5 7.1 99 0.0 CALM 0 0 0 0 1010.8 1010.7 0.0
22/05:00am 8.0 7.5 7.9 99 0.0 CALM 0 4 0 2 1010.5 1010.4 0.0
22/04:30am 8.5 8.1 8.4 99 0.0 CALM 0 0 0 0 1010.2 1010.1 0.0
22/04:00am 8.2 7.8 8.1 99 0.0 CALM 0 0 0 0 1010.4 1010.3 0.0
22/03:30am 8.8 8.5 8.7 99 0.0 CALM 0 6 0 3 1010.5 1010.4 0.0
22/03:00am 8.2 7.7 7.9 98 0.1 CALM 0 0 0 0 1010.6 1010.5 0.0
22/02:30am 8.2 7.6 7.6 96 0.3 SSW 0 0 0 0 1010.9 1010.8 0.0
22/02:00am 9.4 9.2 8.9 97 0.2 CALM 0 0 0 0 1011.1 1011.0 0.0
22/01:30am 9.3 9.0 8.5 95 0.4 CALM 0 0 0 0 1011.3 1011.2 0.0
22/01:00am 10.5 10.4 9.6 94 0.5 CALM 0 0 0 0 1011.5 1011.4 0.0
22/12:30am 11.5 11.7 10.4 93 0.6 CALM 0 0 0 0 1012.1 1012.0 0.0
22/12:00am 12.7 12.7 11.3 91 0.7 NE 2 6 1 3 1012.3 1012.2 0.0
 
Date/Time
EDT
Temp
°C
App
Temp
°C
Dew
Point
Rel
Hum
%
Delta-T
°C
Wind Press
QNH
hPa
Press
MSL
hPa
Rain
since 9 am
mm
Dir
 
Spd
km/h
Gust
km/h
Spd
kts
Gust
kts
21/11:30pm 13.8 12.6 11.7 87 1.1 SSE 9 13 5 7 1012.4 1012.3 0.0
21/11:00pm 13.5 12.6 11.2 86 1.2 SSE 7 11 4 6 1012.4 1012.3 0.0
21/10:30pm 14.2 14.7 11.7 85 1.3 CALM 0 0 0 0 1012.5 1012.4 0.0
21/10:00pm 15.9 14.5 12.1 78 2.1 SSE 11 17 6 9 1012.4 1012.3 0.0
21/09:30pm 16.5 15.1 12.1 75 2.4 SSE 11 17 6 9 1012.3 1012.2 0.0
21/09:00pm 17.4 15.9 11.9 70 3.0 SSE 11 19 6 10 1011.9 1011.8 0.0
21/08:30pm 17.6 15.6 11.4 67 3.4 SSE 13 17 7 9 1011.7 1011.6 0.0
21/08:00pm 18.4 15.8 9.2 55 4.8 SSE 13 17 7 9 1011.3 1011.2 0.0
21/07:30pm 20.6 18.2 8.6 46 6.3 SSE 11 15 6 8 1011.0 1010.9 0.0
21/07:00pm 21.4 18.7 9.0 45 6.6 ESE 13 17 7 9 1010.8 1010.7 0.0
21/06:30pm 22.8 21.0 7.0 36 8.2 SSE 6 9 3 5 1010.5 1010.4 0.0
21/06:00pm 22.9 21.5 7.4 37 8.1 ESE 4 13 2 7 1010.4 1010.3 0.0
21/05:30pm 23.3 21.9 5.7 32 8.9 SSE 2 9 1 5 1010.3 1010.2 0.0
21/05:00pm 23.4 21.6 7.1 35 8.5 E 6 11 3 6 1010.4 1010.3 0.0
21/04:30pm 22.7 21.0 8.4 40 7.6 SSE 7 13 4 7 1010.5 1010.4 0.0
21/04:00pm 22.6 20.6 8.7 41 7.4 W 9 17 5 9 1010.7 1010.6 0.0
21/03:30pm 22.2 20.1 9.7 45 6.8 WNW 11 17 6 9 1010.9 1010.8 0.0
21/03:00pm 22.0 20.9 10.8 49 6.2 WNW 7 15 4 8 1011.1 1011.0 0.0
21/02:30pm 21.5 19.6 10.6 50 6.0 WNW 11 19 6 10 1011.2 1011.1 0.0
21/02:00pm 20.6 18.3 8.9 47 6.2 WNW 11 22 6 12 1011.4 1011.3 0.0
21/01:30pm 21.1 19.5 11.7 55 5.3 SW 11 20 6 11 1011.5 1011.4 0.0
21/01:00pm 20.4 18.3 11.3 56 5.0 W 13 24 7 13 1011.4 1011.3 0.0
21/12:30pm 19.9 17.9 10.3 54 5.2 SSW 11 20 6 11 1011.4 1011.3 0.0
21/12:00pm 19.2 16.0 8.5 50 5.6 W 15 28 8 15 1011.7 1011.6 0.0
21/11:30am 19.1 16.8 11.7 62 4.1 WSW 15 20 8 11 1011.7 1011.6 0.0
21/11:00am 19.1 16.3 13.1 68 3.4 WSW 20 26 11 14 1011.3 1011.2 0.0
21/10:30am 18.1 15.8 13.0 72 2.9 WSW 17 24 9 13 1011.3 1011.2 0.0
21/10:00am 17.0 14.8 12.1 73 2.7 SW 15 24 8 13 1011.5 1011.4 0.0
21/09:30am 16.6 13.6 12.4 76 2.3 W 20 30 11 16 1011.2 1011.1 0.0
21/09:00am 16.3 13.3 12.5 78 2.1 W 20 30 11 16 1011.0 1010.9 2.8
21/08:30am 16.4 15.7 13.1 81 1.8 WNW 9 15 5 8 1010.6 1010.5 2.8
21/08:00am 16.1 16.0 13.4 84 1.5 NNW 6 9 3 5 1009.9 1009.8 2.8
21/07:30am 15.9 15.8 13.2 84 1.5 NW 6 11 3 6 1009.4 1009.3 2.8
21/07:00am 15.7 15.6 13.2 85 1.4 NW 6 9 3 5 1009.1 1009.0 2.8
21/06:30am 15.7 15.1 13.4 86 1.3 W 9 13 5 7 1008.9 1008.8 2.8
21/06:00am 15.8 14.4 13.5 86 1.3 W 13 19 7 10 1008.5 1008.4 2.8
21/05:30am 16.0 13.5 13.5 85 1.4 WSW 19 30 10 16 1007.9 1007.8 2.8
21/05:00am 16.2 13.6 13.3 83 1.6 WSW 19 30 10 16 1007.4 1007.3 2.8
21/04:30am 16.6 13.8 13.3 81 1.9 WSW 20 30 11 16 1006.6 1006.5 2.8
21/04:00am 17.2 14.2 14.8 86 1.4 SW 24 37 13 20 1006.2 1006.1 2.8
21/03:53am 17.0 13.6 15.7 92 0.8 SW 28 35 15 19 1005.9 1005.8 2.8
21/03:30am 16.5 18.0 15.7 95 0.5 WSW 2 13 1 7 1005.1 1005.0 2.8
21/03:00am 15.9 17.3 15.3 96 0.4 SSW 2 7 1 4 1005.4 1005.3 2.8
21/02:30am 15.4 16.1 14.6 95 0.5 S 4 9 2 5 1005.6 1005.5 2.8
21/02:00am 15.2 16.4 13.7 91 0.8 CALM 0 0 0 0 1005.5 1005.4 2.8
21/01:30am 17.2 17.4 14.3 83 1.7 NNW 6 7 3 4 1005.6 1005.5 2.8
21/01:00am 18.4 18.2 14.7 79 2.2 N 9 13 5 7 1005.7 1005.6 2.8
21/12:30am 18.4 18.0 15.3 82 1.8 N 11 15 6 8 1006.1 1006.0 2.8
21/12:00am 18.6 20.5 15.8 84 1.7 CALM 0 7 0 4 1006.5 1006.4 2.8
 
Date/Time
EDT
Temp
°C
App
Temp
°C
Dew
Point
Rel
Hum
%
Delta-T
°C
Wind Press
QNH
hPa
Press
MSL
hPa
Rain
since 9 am
mm
Dir
 
Spd
km/h
Gust
km/h
Spd
kts
Gust
kts
20/11:30pm 18.9 19.3 15.4 80 2.1 N 7 13 4 7 1006.7 1006.6 2.8
20/11:00pm 19.0 19.7 15.5 80 2.1 N 6 13 3 7 1006.9 1006.8 2.8
20/10:30pm 19.7 17.9 15.4 76 2.5 N 19 30 10 16 1006.9 1006.8 2.8
20/10:00pm 18.1 19.3 16.8 92 0.8 NNE 6 11 3 6 1007.5 1007.4 2.8
20/09:30pm 18.2 20.0 17.4 95 0.5 ENE 4 7 2 4 1007.6 1007.5 2.6
20/09:00pm 18.6 19.9 17.6 94 0.6 ENE 7 11 4 6 1007.8 1007.7 1.8
20/08:30pm 18.7 21.3 17.5 93 0.7 CALM 0 0 0 0 1007.7 1007.6 1.4
20/08:00pm 19.0 20.7 17.1 89 1.2 SW 4 9 2 5 1007.4 1007.3 0.8
20/07:30pm 19.2 20.7 17.7 91 0.9 N 6 11 3 6 1007.8 1007.7 0.8
20/07:00pm 19.6 20.9 17.6 88 1.2 ENE 7 9 4 5 1007.6 1007.5 0.6
20/06:30pm 20.1 22.6 17.3 84 1.7 CALM 0 7 0 4 1007.7 1007.6 0.4
20/06:00pm 20.7 22.1 17.3 81 2.1 E 6 7 3 4 1007.6 1007.5 0.2
20/05:30pm 21.6 22.7 16.6 73 3.0 S 6 13 3 7 1007.6 1007.5 0.2
20/05:00pm 22.0 21.8 15.8 68 3.7 SW 11 19 6 10 1007.5 1007.4 0.0
20/04:30pm 22.9 20.8 15.2 62 4.6 WSW 20 33 11 18 1007.1 1007.0 0.0
20/04:00pm 24.4 23.1 14.8 55 5.8 SW 15 28 8 15 1006.6 1006.5 0.0
20/03:30pm 25.8 22.1 10.0 37 8.8 W 20 28 11 15 1005.7 1005.6 0.0
20/03:00pm 25.6 27.8 17.5 61 5.1 NW 2 7 1 4 1004.3 1004.2 0.0
20/02:30pm 25.4 26.3 13.9 49 6.8 NE 2 7 1 4 1004.5 1004.4 0.0
20/02:00pm 24.7 24.7 13.6 50 6.5 NNE 6 9 3 5 1004.9 1004.8 0.0
20/01:30pm 25.8 24.3 10.4 38 8.6 NNE 9 15 5 8 1005.4 1005.3 0.0
20/01:00pm 26.3 24.0 10.5 37 8.9 N 13 24 7 13 1005.9 1005.8 0.0
20/12:30pm 26.0 22.5 8.9 34 9.3 N 17 26 9 14 1006.3 1006.2 0.0
20/12:00pm 26.3 22.0 7.8 31 9.9 N 20 32 11 17 1006.6 1006.5 0.0
20/11:30am 26.6 20.7 7.6 30 10.2 N 28 39 15 21 1006.6 1006.5 0.0
20/11:01am 27.8 21.2 6.0 25 11.4 N 30 50 16 27 1006.8 1006.7 0.0
20/11:00am 28.0 22.1 7.3 27 11.1 N 28 43 15 23 1006.9 1006.8 0.0
20/10:30am 26.9 22.1 7.4 29 10.4 N 22 39 12 21 1007.4 1007.3 0.0
20/10:00am 26.0 20.9 6.1 28 10.4 N 22 35 12 19 1007.6 1007.5 0.0
20/09:30am 25.3 20.7 6.5 30 9.8 N 20 43 11 23 1008.0 1007.9 0.0
20/09:00am 25.0 20.6 7.2 32 9.4 N 20 30 11 16 1008.1 1008.0 0.0
20/08:30am 23.6 21.6 8.8 39 8.0 N 9 19 5 10 1008.3 1008.2 0.0
20/08:00am 23.1 20.6 8.4 39 7.8 N 11 17 6 9 1008.2 1008.1 0.0
20/07:53am 22.7 20.7 8.8 41 7.4 N 9 17 5 9 1008.2 1008.1 0.0
20/07:30am 17.5 18.9 14.4 82 1.8 CALM 0 0 0 0 1008.3 1008.2 0.0
20/07:00am 15.6 16.1 12.9 84 1.5 NE 2 7 1 4 1008.2 1008.1 0.0
20/06:30am 13.5 13.6 11.4 87 1.1 S 2 7 1 4 1008.2 1008.1 0.0
20/06:00am 13.3 13.3 11.2 87 1.1 SW 2 7 1 4 1008.0 1007.9 0.0
20/05:30am 13.7 14.3 11.9 89 1.0 CALM 0 0 0 0 1008.1 1008.0 0.0
20/05:00am 14.1 13.5 11.6 85 1.3 S 6 11 3 6 1008.2 1008.1 0.0
20/04:30am 13.9 14.1 11.8 87 1.1 S 2 7 1 4 1008.5 1008.4 0.0
20/04:00am 13.7 13.3 11.2 85 1.3 S 4 7 2 4 1008.6 1008.5 0.0
20/03:30am 13.6 13.7 11.5 87 1.1 SSE 2 9 1 5 1008.7 1008.6 0.0
20/03:00am 13.6 12.8 10.9 84 1.4 S 6 13 3 7 1009.0 1008.9 0.0
20/02:30am 12.7 13.0 10.8 88 1.0 CALM 0 0 0 0 1009.1 1009.0 0.0
20/02:00am 12.3 12.6 10.9 91 0.7 CALM 0 6 0 3 1009.6 1009.5 0.0
20/01:30am 11.2 11.2 9.8 91 0.7 CALM 0 0 0 0 1010.2 1010.1 0.0
20/01:00am 10.8 10.7 9.4 91 0.7 CALM 0 0 0 0 1011.0 1010.9 0.0
20/12:30am 10.6 10.4 9.2 91 0.7 CALM 0 6 0 3 1011.2 1011.1 0.0
20/12:00am 11.2 11.1 9.5 89 0.9 CALM 0 0 0 0 1011.6 1011.5 0.0
 
Date/Time
EDT
Temp
°C
App
Temp
°C
Dew
Point
Rel
Hum
%
Delta-T
°C
Wind Press
QNH
hPa
Press
MSL
hPa
Rain
since 9 am
mm
Dir
 
Spd
km/h
Gust
km/h
Spd
kts
Gust
kts
19/11:30pm 12.0 12.1 10.2 89 0.9 CALM 0 0 0 0 1011.9 1011.8 0.0
19/11:00pm 12.5 12.7 10.6 88 1.0 CALM 0 0 0 0 1012.3 1012.2 0.0
19/10:30pm 13.4 12.6 11.1 86 1.2 SE 6 7 3 4 1012.2 1012.1 0.0

Other Formats:

Comma delimited format used in spreadsheet applications
http://www.bom.gov.au/fwo/IDV60801/IDV60801.94864.axf

JavaScript Object Notation format (JSON) in row-major order
http://www.bom.gov.au/fwo/IDV60801/IDV60801.94864.json